Avon, Utah
Current Conditions -  °F | °C
As of 4:15 PM on Monday 22 Dec 2014 (Local Time) from KBMC Reporting Station
Overcast Overcast  
Wind Chill: 36°   Ceiling: 4100
Heat Index: 44°   Visibility: 10mi
Dew Point: 31°   Wind: 18mph
Humidity: 60%   Direction: 320°NW
Pressure: 30.01"   Gusts: 25mph
Location:  41.5397°N, 111.856°W
Report Text: KBMC 222315Z AUTO 32016G22KT 300V360 10SM SCT035 BKN041 OVC075 07/M01 A3001 RMK AO1 T00661006
Loading
Personal Weather Stations






























Interactive Weather Map New forecast layout! Learn more

10-Day Weather Forecast

Advertisements
Track Severe Weather on mobile